Niagara Falls, NY

8:58 AM EDT on April 28, 2015 (GMT -0400)
Monroe Sub Niagara Falls ON | | Change Station
CLOSE
Current Station
Personal Weather Station
Location: Niagara Falls, ON
Elevation: 670 ft
Nearby Weather Stations

Elev 670 ft 43.11 °N, 79.11 °W | Updated 3 seconds ago

Mostly Cloudy
Mostly Cloudy
47.7 °F
Feels Like 48 °F
N
0.7
Wind Variable Wind from NW
Gusts 3.1 mph

Today
High -- | Low -- °F
--% Chance of Precip.
Yesterday
High -- | Low -- °F
Precip. -- in
6:14 AM 8:13 PM
Waxing Gibbous, 73% visible
Pressure 30.06 in
Visibility 10.0 miles
Clouds Few 5000 ft
Few 20000 ft
Windchill 48 °F
Dew Point 41 °F
Humidity 77%
Rainfall 0.00 in
Snow Depth Not available.
UV 2 out of 12
Pollen 8.60 out of 12
Air Quality Not available.
Flu Activity Widespread
METAR KIAG 281253Z 30008KT 10SM FEW050 FEW200 07/03 A3003 RMK AO2 SLP177 T00720028

More Conditions Fewer Conditions

Pressure 30.06 in
Visibility 10.0 miles
Clouds Few 5000 ft
Few 20000 ft
Windchill 48 °F
Dew Point 41 °F
Humidity 77%
Rainfall 0.00 in
Snow Depth Not available.
UV 2 out of 12
Pollen 8.60 out of 12
Air Quality Not available.
Flu Activity Widespread
METAR KIAG 281253Z 30008KT 10SM FEW050 FEW200 07/03 A3003 RMK AO2 SLP177 T00720028

More Conditions Fewer Conditions

10-Day Weather Forecast

Almanac

Astronomy

Apr. 28, 2015 Rise Set
Actual Time
Civil Twilight
Nautical Twilight
Astronomical Twilight
Moon
Length of Visible Light
Length of Day
Tomorrow will be .
, % of the Moon is Illuminated

Today's Extremes

State Highs State Lows

Community

WunderPhotos

Upload Photos

1,817,618 photos uploaded!

WunderBlogs® & News

Nearby

Air Quality

  Air Quality AQ Index Pollutant
Not available.

Snow Depth

Station Depth Elevation

Earthquake Activity

City Distance Mag. Time & Date
Minimum magnitude displayed is 2.5.

Coastal Water Temperatures

Place Temperature

Stations

Nearby Weather Stations

Station Location Temp. Windchill Dew Point Humidity Wind Precip. Elev Updated Type